sensor_id;sensor_type;location;lat;lon;timestamp;pressure;altitude;pressure_sealevel;temperature;humidity
6534;BME280;3300;42.698;23.332;2023-08-21T00:00:28;46740.66;;;28.23;47.14
6534;BME280;3300;42.698;23.332;2023-08-21T00:02:55;46728.91;;;28.23;46.99
6534;BME280;3300;42.698;23.332;2023-08-21T00:05:21;46707.38;;;28.23;47.03
6534;BME280;3300;42.698;23.332;2023-08-21T00:07:48;46730.88;;;28.23;47.18
6534;BME280;3300;42.698;23.332;2023-08-21T00:10:17;46768.06;;;28.23;47.08
6534;BME280;3300;42.698;23.332;2023-08-21T00:12:44;46717.16;;;28.23;47.19
6534;BME280;3300;42.698;23.332;2023-08-21T00:15:11;46721.09;;;28.23;47.01
6534;BME280;3300;42.698;23.332;2023-08-21T00:17:37;46725.00;;;28.23;47.08
6534;BME280;3300;42.698;23.332;2023-08-21T00:20:05;46713.25;;;28.23;47.04
6534;BME280;3300;42.698;23.332;2023-08-21T00:22:34;46701.50;;;28.23;47.02
6534;BME280;3300;42.698;23.332;2023-08-21T00:25:01;46728.91;;;28.23;47.18
6534;BME280;3300;42.698;23.332;2023-08-21T00:27:29;46719.13;;;28.23;46.96
6534;BME280;3300;42.698;23.332;2023-08-21T00:29:57;46738.69;;;28.23;46.93
6534;BME280;3300;42.698;23.332;2023-08-21T00:32:23;46750.44;;;28.23;46.88
6534;BME280;3300;42.698;23.332;2023-08-21T00:34:50;46732.81;;;28.23;46.85
6534;BME280;3300;42.698;23.332;2023-08-21T00:37:17;46721.09;;;28.23;46.81
6534;BME280;3300;42.698;23.332;2023-08-21T00:39:44;46748.47;;;28.23;46.71
6534;BME280;3300;42.698;23.332;2023-08-21T00:42:11;46697.59;;;28.23;46.76
6534;BME280;3300;42.698;23.332;2023-08-21T00:44:39;46705.44;;;28.23;46.75
6534;BME280;3300;42.698;23.332;2023-08-21T00:47:06;46730.88;;;28.23;46.69
6534;BME280;3300;42.698;23.332;2023-08-21T00:49:33;46738.69;;;28.23;46.71
6534;BME280;3300;42.698;23.332;2023-08-21T00:52:01;46726.97;;;28.23;46.52
6534;BME280;3300;42.698;23.332;2023-08-21T00:54:28;46717.16;;;28.23;46.70
6534;BME280;3300;42.698;23.332;2023-08-21T00:56:56;46732.81;;;28.23;46.78
6534;BME280;3300;42.698;23.332;2023-08-21T00:59:23;46713.25;;;28.23;46.72
6534;BME280;3300;42.698;23.332;2023-08-21T01:01:51;46717.16;;;28.23;46.71
6534;BME280;3300;42.698;23.332;2023-08-21T01:04:18;46719.13;;;28.23;46.66
6534;BME280;3300;42.698;23.332;2023-08-21T01:06:44;46742.63;;;28.23;46.64
6534;BME280;3300;42.698;23.332;2023-08-21T01:09:17;46738.69;;;28.23;46.66
6534;BME280;3300;42.698;23.332;2023-08-21T01:11:50;46701.50;;;28.23;46.78
6534;BME280;3300;42.698;23.332;2023-08-21T01:14:28;46689.78;;;28.23;46.36
6534;BME280;3300;42.698;23.332;2023-08-21T01:16:59;46738.69;;;28.23;46.49
6534;BME280;3300;42.698;23.332;2023-08-21T01:19:31;46732.81;;;28.23;46.38
6534;BME280;3300;42.698;23.332;2023-08-21T01:21:58;46738.69;;;28.23;46.40
6534;BME280;3300;42.698;23.332;2023-08-21T01:24:27;46734.78;;;28.23;46.65
6534;BME280;3300;42.698;23.332;2023-08-21T01:26:53;46725.00;;;28.23;46.80
6534;BME280;3300;42.698;23.332;2023-08-21T01:29:20;46719.13;;;28.23;46.59
6534;BME280;3300;42.698;23.332;2023-08-21T01:31:52;46726.97;;;28.23;46.61
6534;BME280;3300;42.698;23.332;2023-08-21T01:34:23;46726.97;;;28.23;46.56
6534;BME280;3300;42.698;23.332;2023-08-21T01:36:50;46713.25;;;28.23;46.59
6534;BME280;3300;42.698;23.332;2023-08-21T01:39:17;46728.91;;;28.23;46.68
6534;BME280;3300;42.698;23.332;2023-08-21T01:41:45;46736.75;;;28.23;46.41
6534;BME280;3300;42.698;23.332;2023-08-21T01:44:12;46721.09;;;28.23;46.68
6534;BME280;3300;42.698;23.332;2023-08-21T01:46:39;46736.75;;;28.23;46.43
6534;BME280;3300;42.698;23.332;2023-08-21T01:49:06;46742.63;;;28.23;46.34
6534;BME280;3300;42.698;23.332;2023-08-21T01:51:33;46721.09;;;28.23;46.64
6534;BME280;3300;42.698;23.332;2023-08-21T01:53:59;46701.50;;;28.23;46.43
6534;BME280;3300;42.698;23.332;2023-08-21T01:56:26;46736.75;;;28.23;46.38
6534;BME280;3300;42.698;23.332;2023-08-21T01:58:54;46681.94;;;28.23;46.37
6534;BME280;3300;42.698;23.332;2023-08-21T02:01:21;46719.13;;;28.23;46.32
6534;BME280;3300;42.698;23.332;2023-08-21T02:03:48;46699.56;;;28.23;46.44
6534;BME280;3300;42.698;23.332;2023-08-21T02:06:15;46721.09;;;28.23;46.42
6534;BME280;3300;42.698;23.332;2023-08-21T02:08:42;46705.44;;;28.23;46.26
6534;BME280;3300;42.698;23.332;2023-08-21T02:11:08;46721.09;;;28.23;46.33
6534;BME280;3300;42.698;23.332;2023-08-21T02:13:35;46711.31;;;28.23;46.16
6534;BME280;3300;42.698;23.332;2023-08-21T02:16:03;46721.09;;;28.23;46.52
6534;BME280;3300;42.698;23.332;2023-08-21T02:18:30;46740.66;;;28.23;46.12
6534;BME280;3300;42.698;23.332;2023-08-21T02:20:57;46746.53;;;28.23;46.45
6534;BME280;3300;42.698;23.332;2023-08-21T02:23:24;46721.09;;;28.23;46.15
6534;BME280;3300;42.698;23.332;2023-08-21T02:25:50;46709.34;;;28.23;46.33
6534;BME280;3300;42.698;23.332;2023-08-21T02:28:17;46732.81;;;28.23;45.97
6534;BME280;3300;42.698;23.332;2023-08-21T02:30:45;46744.56;;;28.23;46.24
6534;BME280;3300;42.698;23.332;2023-08-21T02:33:13;46723.03;;;28.23;46.11
6534;BME280;3300;42.698;23.332;2023-08-21T02:35:39;46717.16;;;28.23;45.96
6534;BME280;3300;42.698;23.332;2023-08-21T02:38:06;46717.16;;;28.23;46.33
6534;BME280;3300;42.698;23.332;2023-08-21T02:40:33;46715.22;;;28.23;46.06
6534;BME280;3300;42.698;23.332;2023-08-21T02:42:59;46717.16;;;28.23;46.03
6534;BME280;3300;42.698;23.332;2023-08-21T02:45:26;46752.41;;;28.23;46.29
6534;BME280;3300;42.698;23.332;2023-08-21T02:47:53;46721.09;;;28.23;46.03
6534;BME280;3300;42.698;23.332;2023-08-21T02:50:21;46713.25;;;28.23;46.22
6534;BME280;3300;42.698;23.332;2023-08-21T02:52:48;46738.69;;;28.23;46.34
6534;BME280;3300;42.698;23.332;2023-08-21T02:55:14;46709.34;;;28.23;46.11
6534;BME280;3300;42.698;23.332;2023-08-21T02:57:41;46726.97;;;28.23;45.90
6534;BME280;3300;42.698;23.332;2023-08-21T03:00:08;46707.38;;;28.23;45.91
6534;BME280;3300;42.698;23.332;2023-08-21T03:02:37;46707.38;;;28.23;46.06
6534;BME280;3300;42.698;23.332;2023-08-21T03:05:04;46721.09;;;28.23;45.88
6534;BME280;3300;42.698;23.332;2023-08-21T03:07:34;46736.75;;;28.23;46.13
6534;BME280;3300;42.698;23.332;2023-08-21T03:10:00;46709.34;;;28.23;46.02
6534;BME280;3300;42.698;23.332;2023-08-21T03:12:28;46732.81;;;28.23;45.88
6534;BME280;3300;42.698;23.332;2023-08-21T03:14:55;46732.81;;;28.23;46.34
6534;BME280;3300;42.698;23.332;2023-08-21T03:17:22;46748.47;;;28.23;46.25
6534;BME280;3300;42.698;23.332;2023-08-21T03:19:48;46705.44;;;28.23;46.15
6534;BME280;3300;42.698;23.332;2023-08-21T03:22:15;46725.00;;;28.23;45.93
6534;BME280;3300;42.698;23.332;2023-08-21T03:24:43;46707.38;;;28.23;46.16
6534;BME280;3300;42.698;23.332;2023-08-21T03:27:10;46725.00;;;28.23;46.15
6534;BME280;3300;42.698;23.332;2023-08-21T03:29:36;46740.66;;;28.23;46.06
6534;BME280;3300;42.698;23.332;2023-08-21T03:32:03;46709.34;;;28.23;46.09
6534;BME280;3300;42.698;23.332;2023-08-21T03:34:30;46744.56;;;28.23;45.92
6534;BME280;3300;42.698;23.332;2023-08-21T03:36:57;46707.38;;;28.23;45.83
6534;BME280;3300;42.698;23.332;2023-08-21T03:39:23;46742.63;;;28.23;45.82
6534;BME280;3300;42.698;23.332;2023-08-21T03:41:51;46709.34;;;28.23;46.00
6534;BME280;3300;42.698;23.332;2023-08-21T03:44:18;46736.75;;;28.23;46.05
6534;BME280;3300;42.698;23.332;2023-08-21T03:46:45;46709.34;;;28.23;45.94
6534;BME280;3300;42.698;23.332;2023-08-21T03:49:11;46721.09;;;28.23;46.14
6534;BME280;3300;42.698;23.332;2023-08-21T03:51:38;46740.66;;;28.23;45.97
6534;BME280;3300;42.698;23.332;2023-08-21T03:54:05;46736.75;;;28.23;46.22
6534;BME280;3300;42.698;23.332;2023-08-21T03:56:31;46728.91;;;28.23;46.10
6534;BME280;3300;42.698;23.332;2023-08-21T03:59:00;46703.47;;;28.23;46.27
6534;BME280;3300;42.698;23.332;2023-08-21T04:01:26;46713.25;;;28.23;45.98
6534;BME280;3300;42.698;23.332;2023-08-21T04:03:53;46728.91;;;28.23;46.04
6534;BME280;3300;42.698;23.332;2023-08-21T04:06:20;46725.00;;;28.23;45.97
6534;BME280;3300;42.698;23.332;2023-08-21T04:08:46;46730.88;;;28.23;46.12
6534;BME280;3300;42.698;23.332;2023-08-21T04:11:13;46715.22;;;28.23;46.09
6534;BME280;3300;42.698;23.332;2023-08-21T04:13:40;46709.34;;;28.23;45.91
6534;BME280;3300;42.698;23.332;2023-08-21T04:16:08;46705.44;;;28.23;45.80
6534;BME280;3300;42.698;23.332;2023-08-21T04:18:36;46732.81;;;28.23;46.11
6534;BME280;3300;42.698;23.332;2023-08-21T04:21:04;46738.69;;;28.23;46.09
6534;BME280;3300;42.698;23.332;2023-08-21T04:23:31;46715.22;;;28.23;46.10
6534;BME280;3300;42.698;23.332;2023-08-21T04:26:00;46723.03;;;28.23;45.76
6534;BME280;3300;42.698;23.332;2023-08-21T04:28:27;46723.03;;;28.23;45.70
6534;BME280;3300;42.698;23.332;2023-08-21T04:30:54;46740.66;;;28.23;45.90
6534;BME280;3300;42.698;23.332;2023-08-21T04:33:24;46711.31;;;28.23;45.81
6534;BME280;3300;42.698;23.332;2023-08-21T04:35:51;46726.97;;;28.23;45.95
6534;BME280;3300;42.698;23.332;2023-08-21T04:38:17;46725.00;;;28.23;45.72
6534;BME280;3300;42.698;23.332;2023-08-21T04:40:44;46717.16;;;28.23;46.00
6534;BME280;3300;42.698;23.332;2023-08-21T04:43:11;46728.91;;;28.23;46.11
6534;BME280;3300;42.698;23.332;2023-08-21T04:45:37;46713.25;;;28.23;46.05
6534;BME280;3300;42.698;23.332;2023-08-21T04:48:04;46685.84;;;28.23;45.84
6534;BME280;3300;42.698;23.332;2023-08-21T04:50:32;46744.56;;;28.23;46.06
6534;BME280;3300;42.698;23.332;2023-08-21T04:52:59;46713.25;;;28.23;45.81
6534;BME280;3300;42.698;23.332;2023-08-21T04:55:26;46689.78;;;28.23;46.05
6534;BME280;3300;42.698;23.332;2023-08-21T04:57:52;46709.34;;;28.23;45.78
6534;BME280;3300;42.698;23.332;2023-08-21T05:00:19;46726.97;;;28.23;45.76
6534;BME280;3300;42.698;23.332;2023-08-21T05:02:46;46725.00;;;28.23;45.85
6534;BME280;3300;42.698;23.332;2023-08-21T05:05:13;46721.09;;;28.23;45.86
6534;BME280;3300;42.698;23.332;2023-08-21T05:07:41;46711.31;;;28.23;45.66
6534;BME280;3300;42.698;23.332;2023-08-21T05:10:08;46725.00;;;28.23;46.04
6534;BME280;3300;42.698;23.332;2023-08-21T05:12:35;46738.69;;;28.23;45.78
6534;BME280;3300;42.698;23.332;2023-08-21T05:15:02;46725.00;;;28.23;45.79
6534;BME280;3300;42.698;23.332;2023-08-21T05:17:28;46726.97;;;28.23;45.90
6534;BME280;3300;42.698;23.332;2023-08-21T05:19:56;46740.66;;;28.23;45.92
6534;BME280;3300;42.698;23.332;2023-08-21T05:22:23;46717.16;;;28.23;45.77
6534;BME280;3300;42.698;23.332;2023-08-21T05:24:51;46728.91;;;28.23;45.74
6534;BME280;3300;42.698;23.332;2023-08-21T05:27:17;46726.97;;;28.23;45.87
6534;BME280;3300;42.698;23.332;2023-08-21T05:29:44;46721.09;;;28.23;45.56
6534;BME280;3300;42.698;23.332;2023-08-21T05:32:11;46754.34;;;28.23;45.86
6534;BME280;3300;42.698;23.332;2023-08-21T05:34:38;46736.75;;;28.23;45.98
6534;BME280;3300;42.698;23.332;2023-08-21T05:37:04;46709.34;;;28.23;45.70
6534;BME280;3300;42.698;23.332;2023-08-21T05:39:32;46721.09;;;28.23;45.90
6534;BME280;3300;42.698;23.332;2023-08-21T05:42:01;46717.16;;;28.23;45.86
6534;BME280;3300;42.698;23.332;2023-08-21T05:44:28;46697.59;;;28.23;45.72
6534;BME280;3300;42.698;23.332;2023-08-21T05:46:55;46717.16;;;28.23;45.54
6534;BME280;3300;42.698;23.332;2023-08-21T05:49:22;46709.34;;;28.23;45.84
6534;BME280;3300;42.698;23.332;2023-08-21T05:51:48;46717.16;;;28.23;45.73
6534;BME280;3300;42.698;23.332;2023-08-21T05:54:15;46721.09;;;28.23;45.85
6534;BME280;3300;42.698;23.332;2023-08-21T05:56:42;46717.16;;;28.23;45.55
6534;BME280;3300;42.698;23.332;2023-08-21T05:59:10;46734.78;;;28.23;45.42
6534;BME280;3300;42.698;23.332;2023-08-21T06:01:38;46715.22;;;28.23;45.56
6534;BME280;3300;42.698;23.332;2023-08-21T06:04:04;46679.97;;;28.23;45.92
6534;BME280;3300;42.698;23.332;2023-08-21T06:06:31;46725.00;;;28.23;45.74
6534;BME280;3300;42.698;23.332;2023-08-21T06:08:58;46709.34;;;28.23;45.70
6534;BME280;3300;42.698;23.332;2023-08-21T06:11:24;46748.47;;;28.23;45.58
6534;BME280;3300;42.698;23.332;2023-08-21T06:13:51;46711.31;;;28.23;45.74
6534;BME280;3300;42.698;23.332;2023-08-21T06:16:19;46730.88;;;28.23;45.45
6534;BME280;3300;42.698;23.332;2023-08-21T06:18:46;46717.16;;;28.23;45.51
6534;BME280;3300;42.698;23.332;2023-08-21T06:21:12;46748.47;;;28.23;45.79
6534;BME280;3300;42.698;23.332;2023-08-21T06:23:39;46728.91;;;28.23;45.77
6534;BME280;3300;42.698;23.332;2023-08-21T06:26:06;46721.09;;;28.23;45.69
6534;BME280;3300;42.698;23.332;2023-08-21T06:28:32;46697.59;;;28.23;45.89
6534;BME280;3300;42.698;23.332;2023-08-21T06:30:59;46683.91;;;28.23;45.20
6534;BME280;3300;42.698;23.332;2023-08-21T06:33:30;46719.13;;;28.23;45.15
6534;BME280;3300;42.698;23.332;2023-08-21T06:35:57;46713.25;;;28.23;44.15
6534;BME280;3300;42.698;23.332;2023-08-21T06:38:23;46713.25;;;28.23;44.36
6534;BME280;3300;42.698;23.332;2023-08-21T06:40:50;46705.44;;;28.23;44.35
6534;BME280;3300;42.698;23.332;2023-08-21T06:43:17;46717.16;;;28.23;44.51
6534;BME280;3300;42.698;23.332;2023-08-21T06:45:44;46703.47;;;28.23;44.52
6534;BME280;3300;42.698;23.332;2023-08-21T06:48:10;46721.09;;;28.23;44.92
6534;BME280;3300;42.698;23.332;2023-08-21T06:50:38;46711.31;;;28.23;45.14
6534;BME280;3300;42.698;23.332;2023-08-21T06:53:05;46703.47;;;28.23;43.99
6534;BME280;3300;42.698;23.332;2023-08-21T06:55:32;46705.44;;;28.23;43.45
6534;BME280;3300;42.698;23.332;2023-08-21T06:57:58;46713.25;;;28.23;42.84
6534;BME280;3300;42.698;23.332;2023-08-21T07:00:25;46732.81;;;28.23;43.04
6534;BME280;3300;42.698;23.332;2023-08-21T07:02:52;46701.50;;;28.23;42.66
6534;BME280;3300;42.698;23.332;2023-08-21T07:05:19;46725.00;;;28.23;42.64
6534;BME280;3300;42.698;23.332;2023-08-21T07:07:47;46709.34;;;28.23;42.77
6534;BME280;3300;42.698;23.332;2023-08-21T07:10:13;46725.00;;;28.23;42.38
6534;BME280;3300;42.698;23.332;2023-08-21T07:12:40;46725.00;;;28.23;42.55
6534;BME280;3300;42.698;23.332;2023-08-21T07:15:08;46717.16;;;28.23;42.10
6534;BME280;3300;42.698;23.332;2023-08-21T07:17:35;46726.97;;;28.23;42.15
6534;BME280;3300;42.698;23.332;2023-08-21T07:20:02;46736.75;;;28.23;42.12
6534;BME280;3300;42.698;23.332;2023-08-21T07:22:29;46736.75;;;28.23;42.01
6534;BME280;3300;42.698;23.332;2023-08-21T07:24:57;46721.09;;;28.23;42.10
6534;BME280;3300;42.698;23.332;2023-08-21T07:27:25;46715.22;;;28.23;41.94
6534;BME280;3300;42.698;23.332;2023-08-21T07:29:52;46732.81;;;28.23;42.05
6534;BME280;3300;42.698;23.332;2023-08-21T07:32:19;46725.00;;;28.23;41.97
6534;BME280;3300;42.698;23.332;2023-08-21T07:34:45;46738.69;;;28.23;42.01
6534;BME280;3300;42.698;23.332;2023-08-21T07:37:12;46725.00;;;28.23;42.08
6534;BME280;3300;42.698;23.332;2023-08-21T07:39:39;46713.25;;;28.23;42.03
6534;BME280;3300;42.698;23.332;2023-08-21T07:42:07;46732.81;;;28.23;42.19
6534;BME280;3300;42.698;23.332;2023-08-21T07:44:34;46719.13;;;28.23;42.10
6534;BME280;3300;42.698;23.332;2023-08-21T07:47:01;46740.66;;;28.23;42.27
6534;BME280;3300;42.698;23.332;2023-08-21T07:49:29;46756.31;;;28.23;42.26
6534;BME280;3300;42.698;23.332;2023-08-21T07:51:55;46713.25;;;28.23;42.13
6534;BME280;3300;42.698;23.332;2023-08-21T07:54:22;46728.91;;;28.23;42.19
6534;BME280;3300;42.698;23.332;2023-08-21T07:56:49;46734.78;;;28.23;42.10
6534;BME280;3300;42.698;23.332;2023-08-21T07:59:17;46732.81;;;28.23;42.26
6534;BME280;3300;42.698;23.332;2023-08-21T08:01:45;46697.59;;;28.23;42.30
6534;BME280;3300;42.698;23.332;2023-08-21T08:04:11;46732.81;;;28.23;42.21
6534;BME280;3300;42.698;23.332;2023-08-21T08:06:38;46732.81;;;28.23;42.43
6534;BME280;3300;42.698;23.332;2023-08-21T08:09:05;46713.25;;;28.23;42.18
6534;BME280;3300;42.698;23.332;2023-08-21T08:11:31;46738.69;;;28.23;42.32
6534;BME280;3300;42.698;23.332;2023-08-21T08:13:58;46693.69;;;28.23;42.37
6534;BME280;3300;42.698;23.332;2023-08-21T08:16:26;46732.81;;;28.23;42.64
6534;BME280;3300;42.698;23.332;2023-08-21T08:18:53;46709.34;;;28.23;42.74
6534;BME280;3300;42.698;23.332;2023-08-21T08:21:20;46734.78;;;28.23;43.03
6534;BME280;3300;42.698;23.332;2023-08-21T08:23:47;46707.38;;;28.23;43.37
6534;BME280;3300;42.698;23.332;2023-08-21T08:26:13;46728.91;;;28.23;43.62
6534;BME280;3300;42.698;23.332;2023-08-21T08:28:42;46728.91;;;28.23;44.19
6534;BME280;3300;42.698;23.332;2023-08-21T08:31:14;46740.66;;;28.23;44.50
6534;BME280;3300;42.698;23.332;2023-08-21T08:33:42;46746.53;;;28.23;45.07
6534;BME280;3300;42.698;23.332;2023-08-21T08:36:09;46723.03;;;28.23;45.40
6534;BME280;3300;42.698;23.332;2023-08-21T08:38:36;46732.81;;;28.23;45.59
6534;BME280;3300;42.698;23.332;2023-08-21T08:41:06;46736.75;;;28.23;45.95
6534;BME280;3300;42.698;23.332;2023-08-21T08:43:40;46742.63;;;28.23;45.95
6534;BME280;3300;42.698;23.332;2023-08-21T08:46:08;46728.91;;;28.23;46.25
6534;BME280;3300;42.698;23.332;2023-08-21T08:48:35;46721.09;;;28.23;46.41
6534;BME280;3300;42.698;23.332;2023-08-21T08:51:03;46728.91;;;28.23;46.63
6534;BME280;3300;42.698;23.332;2023-08-21T08:53:30;46740.66;;;28.23;46.64
6534;BME280;3300;42.698;23.332;2023-08-21T08:55:57;46713.25;;;28.23;46.93
6534;BME280;3300;42.698;23.332;2023-08-21T08:58:24;46748.47;;;28.23;46.85
6534;BME280;3300;42.698;23.332;2023-08-21T09:00:51;46746.53;;;28.23;47.01
6534;BME280;3300;42.698;23.332;2023-08-21T09:03:18;46717.16;;;28.23;47.10
6534;BME280;3300;42.698;23.332;2023-08-21T09:05:45;46723.03;;;28.23;47.22
6534;BME280;3300;42.698;23.332;2023-08-21T09:08:15;46709.34;;;28.23;47.28
6534;BME280;3300;42.698;23.332;2023-08-21T09:10:42;46678.03;;;28.23;47.34
6534;BME280;3300;42.698;23.332;2023-08-21T09:13:14;46693.69;;;28.23;47.42
6534;BME280;3300;42.698;23.332;2023-08-21T09:15:42;46707.38;;;28.23;47.14
6534;BME280;3300;42.698;23.332;2023-08-21T09:18:10;46736.75;;;28.23;47.26
6534;BME280;3300;42.698;23.332;2023-08-21T09:20:38;46736.75;;;28.23;47.18
6534;BME280;3300;42.698;23.332;2023-08-21T09:23:05;46744.56;;;28.23;47.04
6534;BME280;3300;42.698;23.332;2023-08-21T09:25:38;46748.47;;;28.23;46.79
6534;BME280;3300;42.698;23.332;2023-08-21T09:28:06;46725.00;;;28.23;46.82
6534;BME280;3300;42.698;23.332;2023-08-21T09:30:49;46715.22;;;28.23;46.85
6534;BME280;3300;42.698;23.332;2023-08-21T09:33:17;46736.75;;;28.23;46.72
6534;BME280;3300;42.698;23.332;2023-08-21T09:35:44;46734.78;;;28.23;46.68
6534;BME280;3300;42.698;23.332;2023-08-21T09:38:11;46721.09;;;28.23;46.80
6534;BME280;3300;42.698;23.332;2023-08-21T09:40:43;46830.69;;;28.23;46.74
6534;BME280;3300;42.698;23.332;2023-08-21T09:43:15;46738.69;;;28.23;46.73
6534;BME280;3300;42.698;23.332;2023-08-21T09:45:45;46734.78;;;28.23;46.87
6534;BME280;3300;42.698;23.332;2023-08-21T09:48:13;46736.75;;;28.23;46.83
6534;BME280;3300;42.698;23.332;2023-08-21T09:50:40;46730.88;;;28.23;46.87
6534;BME280;3300;42.698;23.332;2023-08-21T09:53:08;46721.09;;;28.23;46.85
6534;BME280;3300;42.698;23.332;2023-08-21T09:55:35;46732.81;;;28.23;46.80
6534;BME280;3300;42.698;23.332;2023-08-21T09:58:04;46736.75;;;28.23;46.90
6534;BME280;3300;42.698;23.332;2023-08-21T10:00:31;46762.19;;;28.23;46.82
6534;BME280;3300;42.698;23.332;2023-08-21T10:03:01;46721.09;;;28.23;46.42
6534;BME280;3300;42.698;23.332;2023-08-21T10:05:29;46738.69;;;28.23;46.68
6534;BME280;3300;42.698;23.332;2023-08-21T10:07:59;46719.13;;;28.23;46.57
6534;BME280;3300;42.698;23.332;2023-08-21T10:10:29;46732.81;;;28.23;46.57
6534;BME280;3300;42.698;23.332;2023-08-21T10:12:56;46726.97;;;28.23;46.68
6534;BME280;3300;42.698;23.332;2023-08-21T10:15:25;46760.22;;;28.23;46.44
6534;BME280;3300;42.698;23.332;2023-08-21T10:17:52;46728.91;;;28.23;46.47
6534;BME280;3300;42.698;23.332;2023-08-21T10:20:21;46732.81;;;28.23;46.52
6534;BME280;3300;42.698;23.332;2023-08-21T10:22:51;46838.50;;;28.23;46.50
6534;BME280;3300;42.698;23.332;2023-08-21T10:25:20;46725.00;;;28.23;46.64
6534;BME280;3300;42.698;23.332;2023-08-21T10:27:50;46742.63;;;28.23;47.03
6534;BME280;3300;42.698;23.332;2023-08-21T10:30:21;46744.56;;;28.23;46.97
6534;BME280;3300;42.698;23.332;2023-08-21T10:32:50;46697.59;;;28.23;46.99
6534;BME280;3300;42.698;23.332;2023-08-21T10:35:19;46752.41;;;28.23;47.01
6534;BME280;3300;42.698;23.332;2023-08-21T10:38:05;46734.78;;;28.23;46.99
6534;BME280;3300;42.698;23.332;2023-08-21T10:40:32;46736.75;;;28.23;46.95
6534;BME280;3300;42.698;23.332;2023-08-21T10:43:00;46726.97;;;28.23;46.80
6534;BME280;3300;42.698;23.332;2023-08-21T10:45:28;46730.88;;;28.23;46.71
6534;BME280;3300;42.698;23.332;2023-08-21T10:47:57;46748.47;;;28.23;46.82
6534;BME280;3300;42.698;23.332;2023-08-21T10:50:25;46717.16;;;28.23;46.86
6534;BME280;3300;42.698;23.332;2023-08-21T10:52:53;46715.22;;;28.23;46.87
6534;BME280;3300;42.698;23.332;2023-08-21T10:55:20;46719.13;;;28.23;46.95
6534;BME280;3300;42.698;23.332;2023-08-21T10:57:47;46709.34;;;28.23;46.82
6534;BME280;3300;42.698;23.332;2023-08-21T11:00:16;46732.81;;;28.23;46.90
6534;BME280;3300;42.698;23.332;2023-08-21T11:02:44;46725.00;;;28.23;46.94
6534;BME280;3300;42.698;23.332;2023-08-21T11:05:13;46744.56;;;28.23;46.94
6534;BME280;3300;42.698;23.332;2023-08-21T11:07:42;46715.22;;;28.23;46.96
6534;BME280;3300;42.698;23.332;2023-08-21T11:10:11;46742.63;;;28.23;46.88
6534;BME280;3300;42.698;23.332;2023-08-21T11:12:48;46719.13;;;28.23;46.92
6534;BME280;3300;42.698;23.332;2023-08-21T11:15:15;46709.34;;;28.23;46.66
6534;BME280;3300;42.698;23.332;2023-08-21T11:17:43;46725.00;;;28.23;46.88
6534;BME280;3300;42.698;23.332;2023-08-21T11:20:18;46734.78;;;28.23;47.01
6534;BME280;3300;42.698;23.332;2023-08-21T11:22:45;46756.31;;;28.23;47.17
6534;BME280;3300;42.698;23.332;2023-08-21T11:25:11;46750.44;;;28.23;47.17
6534;BME280;3300;42.698;23.332;2023-08-21T11:27:38;46725.00;;;28.23;47.05
6534;BME280;3300;42.698;23.332;2023-08-21T11:30:06;46713.25;;;28.23;46.98
6534;BME280;3300;42.698;23.332;2023-08-21T11:32:33;46717.16;;;28.23;46.92
6534;BME280;3300;42.698;23.332;2023-08-21T11:35:00;46726.97;;;28.23;46.80
6534;BME280;3300;42.698;23.332;2023-08-21T11:37:30;46725.00;;;28.23;46.83
6534;BME280;3300;42.698;23.332;2023-08-21T11:39:58;46693.69;;;28.23;46.66
6534;BME280;3300;42.698;23.332;2023-08-21T11:42:30;46742.63;;;28.23;46.92
6534;BME280;3300;42.698;23.332;2023-08-21T11:44:58;46711.31;;;28.23;46.87
6534;BME280;3300;42.698;23.332;2023-08-21T11:47:31;46717.16;;;28.23;46.99
6534;BME280;3300;42.698;23.332;2023-08-21T11:50:02;46740.66;;;28.23;47.05
6534;BME280;3300;42.698;23.332;2023-08-21T11:52:31;46736.75;;;28.23;46.96
6534;BME280;3300;42.698;23.332;2023-08-21T11:54:58;46717.16;;;28.23;46.91
6534;BME280;3300;42.698;23.332;2023-08-21T11:57:25;46754.34;;;28.23;47.02
6534;BME280;3300;42.698;23.332;2023-08-21T11:59:54;46719.13;;;28.23;47.07
6534;BME280;3300;42.698;23.332;2023-08-21T12:02:23;46726.97;;;28.23;46.94
6534;BME280;3300;42.698;23.332;2023-08-21T12:04:53;46730.88;;;28.23;46.88
6534;BME280;3300;42.698;23.332;2023-08-21T12:07:20;46713.25;;;28.23;46.87
6534;BME280;3300;42.698;23.332;2023-08-21T12:09:49;46721.09;;;28.23;46.79
6534;BME280;3300;42.698;23.332;2023-08-21T12:12:16;46889.41;;;28.23;46.86
6534;BME280;3300;42.698;23.332;2023-08-21T12:14:43;46725.00;;;28.23;46.90
6534;BME280;3300;42.698;23.332;2023-08-21T12:17:09;46736.75;;;28.23;46.93
6534;BME280;3300;42.698;23.332;2023-08-21T12:19:36;46725.00;;;28.23;47.01
6534;BME280;3300;42.698;23.332;2023-08-21T12:22:03;46740.66;;;28.23;47.01
6534;BME280;3300;42.698;23.332;2023-08-21T12:24:30;46732.81;;;28.23;47.04
6534;BME280;3300;42.698;23.332;2023-08-21T12:26:58;46752.41;;;28.23;47.03
6534;BME280;3300;42.698;23.332;2023-08-21T12:29:25;46764.13;;;28.23;47.01
6534;BME280;3300;42.698;23.332;2023-08-21T12:31:52;46711.31;;;28.23;47.04
6534;BME280;3300;42.698;23.332;2023-08-21T12:34:19;46742.63;;;28.23;47.01
6534;BME280;3300;42.698;23.332;2023-08-21T12:36:46;46752.41;;;28.23;47.05
6534;BME280;3300;42.698;23.332;2023-08-21T12:39:13;46742.63;;;28.23;47.00
6534;BME280;3300;42.698;23.332;2023-08-21T12:41:41;46744.56;;;28.23;47.00
6534;BME280;3300;42.698;23.332;2023-08-21T12:44:10;46728.91;;;28.23;47.12
6534;BME280;3300;42.698;23.332;2023-08-21T12:46:38;46728.91;;;28.23;47.20
6534;BME280;3300;42.698;23.332;2023-08-21T12:49:04;46709.34;;;28.23;47.03
6534;BME280;3300;42.698;23.332;2023-08-21T12:51:31;46738.69;;;28.23;46.79
6534;BME280;3300;42.698;23.332;2023-08-21T12:53:58;46736.75;;;28.23;46.69
6534;BME280;3300;42.698;23.332;2023-08-21T12:56:25;46725.00;;;28.23;46.82
6534;BME280;3300;42.698;23.332;2023-08-21T12:58:52;46732.81;;;28.23;46.57
6534;BME280;3300;42.698;23.332;2023-08-21T13:01:20;46740.66;;;28.23;46.66
6534;BME280;3300;42.698;23.332;2023-08-21T13:03:47;46740.66;;;28.23;46.52
6534;BME280;3300;42.698;23.332;2023-08-21T13:06:14;46719.13;;;28.23;46.51
6534;BME280;3300;42.698;23.332;2023-08-21T13:08:41;46736.75;;;28.23;46.58
6534;BME280;3300;42.698;23.332;2023-08-21T13:11:08;46707.38;;;28.23;46.65